Time;durP1;ratioP1;P1;durP2;ratioP2;P2;SDS_P1;SDS_P2;PMS_P1;PMS_P2;Temp;Humidity;BMP_temperature;BMP_pressure;BME280_temperature;BME280_humidity;BME280_pressure;Samples;Min_cycle;Max_cycle;Signal;HPM_P1;HPM_P2
2022/04/26 03:36:11;;;;;;;8.63;5.47;;;;;;;8.06;100.00;98248.88;5032233;28;20307;-50
2022/04/26 03:38:41;;;;;;;6.50;5.33;;;;;;;8.01;100.00;98247.66;5031847;28;20188;-51
2022/04/26 03:41:08;;;;;;;8.17;5.70;;;;;;;8.02;100.00;98265.72;5032111;28;20252;-50
2022/04/26 03:43:37;;;;;;;5.73;4.77;;;;;;;8.02;100.00;98255.31;5032043;28;20197;-51
2022/04/26 03:46:04;;;;;;;13.10;5.57;;;;;;;8.01;100.00;98258.06;5032067;28;20307;-52
2022/04/26 03:48:32;;;;;;;7.67;5.57;;;;;;;8.03;100.00;98269.97;5031709;28;20246;-50
2022/04/26 03:50:59;;;;;;;7.37;5.47;;;;;;;8.05;100.00;98281.03;5031327;28;20214;-52
2022/04/26 03:53:26;;;;;;;10.30;4.70;;;;;;;8.08;100.00;98269.50;5031118;28;20263;-51
2022/04/26 03:55:53;;;;;;;7.60;5.70;;;;;;;8.08;100.00;98272.13;5031222;28;20644;-52
2022/04/26 03:58:20;;;;;;;11.00;6.57;;;;;;;8.11;100.00;98258.84;5031320;28;20247;-50
2022/04/26 04:00:46;;;;;;;19.50;17.50;;;;;;;8.10;100.00;98250.22;5032012;28;20236;-53
2022/04/26 04:03:13;;;;;;;6.70;5.90;;;;;;;8.08;100.00;98239.16;5031889;28;20285;-53
2022/04/26 04:05:42;;;;;;;8.93;7.30;;;;;;;8.08;100.00;98249.56;5031773;28;20673;-53
2022/04/26 04:08:09;;;;;;;9.97;7.67;;;;;;;8.13;100.00;98265.53;5031990;28;20246;-52
2022/04/26 04:10:35;;;;;;;6.87;5.73;;;;;;;8.17;100.00;98266.06;5031793;28;20193;-50
2022/04/26 04:13:02;;;;;;;7.50;6.13;;;;;;;8.23;100.00;98267.28;5031837;28;20520;-50
2022/04/26 04:15:29;;;;;;;9.73;8.63;;;;;;;8.23;100.00;98260.28;5031790;28;20189;-50
2022/04/26 04:17:56;;;;;;;12.53;9.80;;;;;;;8.22;100.00;98256.03;5032090;28;20248;-52
2022/04/26 04:20:23;;;;;;;9.33;7.03;;;;;;;8.27;100.00;98243.44;5031554;28;20198;-50
2022/04/26 04:22:53;;;;;;;9.57;7.27;;;;;;;8.35;100.00;98236.69;5031725;28;20189;-50
2022/04/26 04:25:20;;;;;;;7.60;6.47;;;;;;;8.42;100.00;98240.34;5033967;28;20684;-50
2022/04/26 04:27:47;;;;;;;8.93;6.30;;;;;;;8.41;100.00;98252.53;5035601;28;20651;-50
2022/04/26 04:30:15;;;;;;;8.73;6.73;;;;;;;8.38;100.00;98268.44;5035419;28;20567;-51
2022/04/26 04:32:42;;;;;;;9.57;6.93;;;;;;;8.32;100.00;98262.97;5009759;28;20657;-51
2022/04/26 04:35:09;;;;;;;10.63;7.00;;;;;;;8.20;100.00;98270.97;5019957;28;20240;-50
2022/04/26 04:37:36;;;;;;;8.67;6.53;;;;;;;8.08;100.00;98280.75;5026886;28;20251;-51
2022/04/26 04:40:05;;;;;;;8.63;6.17;;;;;;;7.97;100.00;98286.13;5026886;28;20707;-50
2022/04/26 04:42:32;;;;;;;7.50;5.90;;;;;;;7.81;100.00;98284.13;5035567;28;20189;-50
2022/04/26 04:44:59;;;;;;;8.57;6.60;;;;;;;7.67;100.00;98280.19;5035138;28;20208;-50
2022/04/26 04:47:27;;;;;;;7.43;5.87;;;;;;;7.63;100.00;98287.47;5035305;28;20752;-53
2022/04/26 04:49:53;;;;;;;10.27;6.77;;;;;;;7.54;100.00;98290.91;5034487;28;20263;-51
2022/04/26 04:52:20;;;;;;;8.27;6.13;;;;;;;7.44;100.00;98290.09;5034453;28;20267;-50
2022/04/26 04:54:47;;;;;;;10.07;6.47;;;;;;;7.36;100.00;98303.78;5034096;28;20219;-50
2022/04/26 04:57:16;;;;;;;10.47;6.43;;;;;;;7.31;100.00;98305.97;5034279;28;20700;-50
2022/04/26 04:59:42;;;;;;;8.83;6.70;;;;;;;7.37;100.00;98315.81;5034738;28;20239;-50
2022/04/26 05:02:09;;;;;;;8.67;6.47;;;;;;;7.38;100.00;98305.28;5035110;28;20193;-50
2022/04/26 05:04:36;;;;;;;9.80;6.63;;;;;;;7.49;100.00;98306.06;5034958;28;20208;-50
2022/04/26 05:07:04;;;;;;;9.60;6.53;;;;;;;7.58;100.00;98305.25;5034811;28;20212;-50
2022/04/26 05:09:30;;;;;;;13.37;7.57;;;;;;;7.73;100.00;98313.41;5034505;28;20631;-50
2022/04/26 05:11:57;;;;;;;9.80;7.00;;;;;;;7.86;100.00;98317.47;5034710;28;20191;-50
2022/04/26 05:14:25;;;;;;;8.73;7.07;;;;;;;7.93;100.00;98319.41;5034507;28;20208;-51
2022/04/26 05:16:52;;;;;;;9.03;6.37;;;;;;;8.00;100.00;98317.03;5034142;28;20189;-50
2022/04/26 05:19:21;;;;;;;10.63;6.30;;;;;;;8.01;100.00;98320.44;5034465;28;20181;-50
2022/04/26 05:21:48;;;;;;;9.43;6.47;;;;;;;8.04;100.00;98327.94;5034593;28;20618;-50
2022/04/26 05:27:08;;;;;;;11.70;9.23;;;;;;;8.07;100.00;98320.72;5009646;28;20229;-51
2022/04/26 05:29:36;;;;;;;15.67;11.80;;;;;;;8.07;100.00;98325.06;5034156;28;20189;-50
2022/04/26 05:32:04;;;;;;;13.53;9.93;;;;;;;8.08;100.00;98326.72;5034499;28;20271;-50
2022/04/26 05:34:30;;;;;;;8.03;7.17;;;;;;;8.10;100.00;98329.97;5034098;28;20208;-52
2022/04/26 05:36:58;;;;;;;10.30;8.80;;;;;;;8.20;100.00;98338.56;5033950;28;20186;-50
2022/04/26 05:39:25;;;;;;;13.87;9.40;;;;;;;8.28;100.00;98337.88;5033985;28;20194;-52
2022/04/26 05:41:52;;;;;;;9.97;8.30;;;;;;;8.39;100.00;98340.28;5034160;28;20182;-50
2022/04/26 05:44:18;;;;;;;10.20;7.67;;;;;;;8.40;100.00;98346.28;5034018;28;20674;-50
2022/04/26 05:46:46;;;;;;;8.90;7.70;;;;;;;8.50;100.00;98351.47;5034137;28;20214;-50
2022/04/26 05:49:13;;;;;;;9.80;7.73;;;;;;;8.57;100.00;98342.97;5033619;28;20189;-52
2022/04/26 05:51:40;;;;;;;12.93;8.50;;;;;;;8.63;100.00;98345.94;5033622;28;20194;-52
2022/04/26 05:54:07;;;;;;;10.33;8.17;;;;;;;8.65;100.00;98354.44;5033838;28;20701;-51
2022/04/26 05:56:33;;;;;;;9.73;7.97;;;;;;;8.65;100.00;98359.63;5033707;28;20232;-51
2022/04/26 05:59:00;;;;;;;14.40;8.07;;;;;;;8.70;100.00;98360.03;5033743;28;20198;-52
2022/04/26 06:01:27;;;;;;;10.18;8.80;;;;;;;8.73;100.00;98361.50;5033518;28;20433;-50
2022/04/26 06:03:55;;;;;;;19.20;10.10;;;;;;;8.68;100.00;98367.97;5033691;28;20239;-50
2022/04/26 06:06:22;;;;;;;13.83;8.73;;;;;;;8.67;100.00;98362.91;5033635;28;20206;-50
2022/04/26 06:08:49;;;;;;;9.93;8.00;;;;;;;8.69;100.00;98361.78;5033329;28;20190;-50
2022/04/26 06:11:16;;;;;;;10.93;7.60;;;;;;;8.73;100.00;98362.34;5033751;28;20209;-51
2022/04/26 06:13:43;;;;;;;11.57;8.27;;;;;;;8.70;100.00;98373.84;5033415;28;20690;-50
2022/04/26 06:16:09;;;;;;;15.57;12.17;;;;;;;8.76;100.00;98371.63;5033561;28;20201;-50
2022/04/26 06:18:36;;;;;;;16.77;11.67;;;;;;;8.71;100.00;98372.06;5033377;28;20218;-50
2022/04/26 06:21:07;;;;;;;15.13;11.90;;;;;;;8.65;100.00;98376.06;5033614;28;20673;-52
2022/04/26 06:23:34;;;;;;;17.07;13.13;;;;;;;8.68;100.00;98377.56;5033283;28;20500;-50
2022/04/26 06:26:02;;;;;;;18.57;13.00;;;;;;;8.71;100.00;98378.06;5033347;28;20207;-50
2022/04/26 06:28:29;;;;;;;19.57;13.40;;;;;;;8.65;100.00;98375.25;5033143;28;20193;-51
2022/04/26 06:30:56;;;;;;;21.03;14.43;;;;;;;8.64;100.00;98384.03;5033315;28;20187;-50
2022/04/26 06:33:22;;;;;;;17.40;13.30;;;;;;;8.63;100.00;98387.59;5033200;28;20212;-50
2022/04/26 06:35:49;;;;;;;20.50;14.13;;;;;;;8.57;100.00;98383.75;5015810;28;20528;-50
2022/04/26 06:38:17;;;;;;;23.57;14.90;;;;;;;8.65;100.00;98391.66;5016774;28;20187;-50
2022/04/26 06:40:45;;;;;;;20.90;14.70;;;;;;;8.70;100.00;98388.66;5019238;28;20187;-50
2022/04/26 06:43:11;;;;;;;21.70;15.87;;;;;;;8.67;100.00;98397.53;5023525;28;20220;-50
2022/04/26 06:45:38;;;;;;;22.77;14.90;;;;;;;8.67;100.00;98386.34;5024696;28;20193;-50
2022/04/26 06:48:07;;;;;;;22.63;16.13;;;;;;;8.70;100.00;98397.25;5027433;28;20210;-50
2022/04/26 06:50:35;;;;;;;20.67;14.90;;;;;;;8.74;100.00;98395.19;5012338;28;20201;-49
2022/04/26 06:53:01;;;;;;;24.50;15.30;;;;;;;8.72;100.00;98397.13;5011888;28;20197;-49
2022/04/26 06:55:30;;;;;;;21.13;15.63;;;;;;;8.81;100.00;98398.03;5012244;28;20651;-49
2022/04/26 06:57:57;;;;;;;23.67;16.23;;;;;;;8.79;100.00;98394.75;5012198;28;20190;-51
2022/04/26 07:00:25;;;;;;;25.80;17.07;;;;;;;8.74;100.00;98397.81;5020410;28;20198;-50
2022/04/26 07:02:52;;;;;;;25.03;17.67;;;;;;;8.76;100.00;98387.22;5026087;28;20669;-50
2022/04/26 07:05:18;;;;;;;25.77;16.97;;;;;;;8.81;100.00;98392.81;5032538;28;20191;-50
2022/04/26 07:07:45;;;;;;;25.07;18.00;;;;;;;8.84;100.00;98392.53;5032509;28;20224;-50
2022/04/26 07:10:12;;;;;;;25.17;16.37;;;;;;;9.01;100.00;98396.97;5032096;28;20539;-49
2022/04/26 07:12:40;;;;;;;22.47;16.43;;;;;;;9.16;100.00;98394.66;5032669;28;20278;-49
2022/04/26 07:15:08;;;;;;;21.83;16.73;;;;;;;9.41;100.00;98401.91;5032437;28;20205;-50
2022/04/26 07:17:34;;;;;;;21.40;16.47;;;;;;;9.85;100.00;98399.31;5032403;28;20197;-49
2022/04/26 07:20:01;;;;;;;19.50;15.10;;;;;;;10.24;100.00;98405.13;5031988;28;20199;-50
2022/04/26 07:22:47;;;;;;;23.17;16.67;;;;;;;10.31;97.84;98401.72;5032425;28;20348;-50
2022/04/26 07:25:13;;;;;;;21.87;15.87;;;;;;;10.56;96.54;98401.91;5032383;28;20226;-50
2022/04/26 07:28:00;;;;;;;25.97;15.97;;;;;;;10.47;94.41;98403.66;5032238;28;20210;-50
2022/04/26 07:30:34;;;;;;;21.20;15.27;;;;;;;10.43;96.82;98411.94;5031848;28;20529;-50
2022/04/26 07:35:45;;;;;;;22.30;16.13;;;;;;;10.70;92.72;98412.72;5032031;28;20183;-51
2022/04/26 07:38:11;;;;;;;23.10;16.17;;;;;;;11.02;92.86;98411.22;5032637;28;20190;-52
2022/04/26 07:40:38;;;;;;;19.63;15.03;;;;;;;10.97;91.11;98408.25;5031865;28;20195;-49
2022/04/26 07:43:07;;;;;;;21.93;15.03;;;;;;;10.78;89.56;98408.34;5032123;28;20212;-50
2022/04/26 07:45:37;;;;;;;19.23;13.87;;;;;;;10.71;89.34;98409.13;5031988;28;20296;-50
2022/04/26 07:48:05;;;;;;;17.80;13.93;;;;;;;10.87;88.15;98413.59;5032246;28;20200;-49
2022/04/26 07:50:33;;;;;;;18.40;13.87;;;;;;;10.77;90.75;98411.94;5031778;28;20192;-49
2022/04/26 07:53:01;;;;;;;18.50;14.43;;;;;;;10.90;89.92;98418.50;5031458;28;20180;-50
2022/04/26 07:55:28;;;;;;;18.77;15.07;;;;;;;11.06;89.67;98415.13;5031453;28;20188;-50
2022/04/26 07:57:58;;;;;;;16.80;13.17;;;;;;;11.34;87.12;98425.31;5031373;28;20211;-51
2022/04/26 08:00:26;;;;;;;17.77;13.63;;;;;;;11.33;86.58;98427.13;5035012;28;20212;-50
2022/04/26 08:02:53;;;;;;;19.60;13.57;;;;;;;11.42;85.13;98430.53;5035875;28;20184;-49
2022/04/26 08:05:20;;;;;;;18.23;13.87;;;;;;;11.13;84.44;98429.16;5035901;28;20206;-50
2022/04/26 08:07:48;;;;;;;18.57;14.27;;;;;;;11.14;86.48;98435.22;5036017;28;20210;-50
2022/04/26 08:10:15;;;;;;;17.07;12.90;;;;;;;11.41;81.71;98438.56;5035686;28;20191;-50
2022/04/26 08:12:45;;;;;;;14.17;11.97;;;;;;;11.46;78.91;98446.75;5036005;28;20193;-51
2022/04/26 08:15:13;;;;;;;15.27;11.50;;;;;;;11.78;78.62;98458.19;5035531;28;20199;-49
2022/04/26 08:17:42;;;;;;;17.47;13.57;;;;;;;11.95;79.51;98454.59;5035055;28;20194;-49
2022/04/26 08:20:10;;;;;;;19.50;14.07;;;;;;;12.16;77.41;98460.38;5035459;28;20196;-49
2022/04/26 08:22:37;;;;;;;16.70;13.50;;;;;;;12.02;73.61;98459.22;5035790;28;20289;-50
2022/04/26 08:27:51;;;;;;;15.47;11.67;;;;;;;12.79;70.90;98474.44;5035522;28;20245;-50
2022/04/26 08:30:18;;;;;;;13.80;10.80;;;;;;;12.88;72.98;98475.25;5035356;28;20194;-50
2022/04/26 08:32:48;;;;;;;17.17;12.57;;;;;;;12.96;73.37;98482.25;5035262;28;20183;-51
2022/04/26 08:35:17;;;;;;;16.20;12.20;;;;;;;12.16;74.18;98482.09;5035348;28;20193;-49
2022/04/26 08:37:44;;;;;;;19.00;13.73;;;;;;;12.29;72.80;98478.16;5035372;28;20190;-49
2022/04/26 08:40:12;;;;;;;18.40;12.97;;;;;;;12.47;75.08;98484.03;5035120;28;20191;-50
2022/04/26 08:42:40;;;;;;;19.83;14.13;;;;;;;12.60;70.55;98490.56;5028787;28;20602;-50
2022/04/26 08:45:09;;;;;;;15.47;12.27;;;;;;;12.86;71.46;98487.69;5019283;28;20207;-49
2022/04/26 08:53:08;;;;;;;16.23;13.10;;;;;;;12.91;67.38;98495.03;5014210;28;20216;-50
2022/04/26 08:55:42;;;;;;;20.97;13.63;;;;;;;12.78;66.88;98499.00;5014239;28;20273;-50
2022/04/26 08:58:11;;;;;;;23.53;12.17;;;;;;;12.58;71.07;98506.41;5022520;28;20191;-50
2022/04/26 09:00:40;;;;;;;18.13;12.63;;;;;;;12.74;66.07;98507.38;5026388;28;20229;-50
2022/04/26 09:03:08;;;;;;;18.40;12.33;;;;;;;12.91;68.28;98516.81;5034649;28;20240;-52
2022/04/26 09:05:37;;;;;;;15.57;12.80;;;;;;;12.91;67.33;98501.09;5016737;28;20217;-49
2022/04/26 09:08:21;;;;;;;16.90;12.27;;;;;;;12.93;69.27;98504.38;5034737;28;20203;-50
2022/04/26 09:10:50;;;;;;;18.10;13.20;;;;;;;13.09;68.66;98518.41;5032717;28;20211;-53
2022/04/26 09:13:20;;;;;;;17.67;13.23;;;;;;;13.16;67.19;98503.63;5034717;28;20203;-52
2022/04/26 09:15:50;;;;;;;18.07;13.37;;;;;;;13.40;63.09;98509.72;5034829;28;20548;-50
2022/04/26 09:18:21;;;;;;;17.90;12.83;;;;;;;13.46;63.75;98501.19;5034707;28;20238;-49
2022/04/26 09:20:52;;;;;;;18.93;12.43;;;;;;;13.05;65.11;98504.81;5034453;28;20216;-49
2022/04/26 09:23:21;;;;;;;17.60;12.87;;;;;;;13.04;64.85;98523.34;5034610;28;20208;-50
2022/04/26 09:25:49;;;;;;;20.63;13.40;;;;;;;13.10;65.90;98504.31;5034528;28;20195;-50
2022/04/26 09:28:24;;;;;;;21.83;14.23;;;;;;;12.89;67.01;98504.84;5034449;28;20560;-50
2022/04/26 09:30:52;;;;;;;21.77;13.40;;;;;;;13.18;68.80;98519.19;5034372;28;20198;-50
2022/04/26 09:33:32;;;;;;;16.60;13.73;;;;;;;12.66;67.84;98506.41;5016297;28;20316;-51
2022/04/26 09:36:06;;;;;;;17.73;13.97;;;;;;;12.49;66.75;98507.41;5034082;28;20201;-49
2022/04/26 09:38:33;;;;;;;20.63;13.77;;;;;;;12.98;66.50;98506.47;5034201;28;20621;-51
2022/04/26 09:41:02;;;;;;;15.83;12.77;;;;;;;13.19;64.17;98510.31;5034445;28;20271;-50
2022/04/26 09:43:29;;;;;;;18.83;13.60;;;;;;;12.92;65.69;98504.53;5024875;28;20227;-50
2022/04/26 09:45:57;;;;;;;16.67;13.43;;;;;;;13.24;64.40;98511.47;5022255;28;20617;-52
2022/04/26 09:48:29;;;;;;;17.83;13.40;;;;;;;13.75;64.99;98518.09;5022594;28;20215;-49
2022/04/26 09:50:58;;;;;;;15.10;13.17;;;;;;;13.38;64.95;98507.28;5019721;28;20220;-49
2022/04/26 09:53:26;;;;;;;15.27;13.67;;;;;;;13.49;62.71;98518.41;5009161;28;20224;-50
2022/04/26 09:55:57;;;;;;;19.03;14.37;;;;;;;13.35;67.12;98517.28;5020174;28;20196;-50
2022/04/26 09:58:26;;;;;;;17.60;13.57;;;;;;;13.73;66.32;98515.66;5022723;28;20185;-51
2022/04/26 10:00:54;;;;;;;17.30;12.70;;;;;;;13.99;63.81;98511.03;5023943;28;20692;-51
2022/04/26 10:03:24;;;;;;;17.97;14.13;;;;;;;13.63;65.03;98514.22;5023444;28;20214;-50
2022/04/26 10:05:59;;;;;;;17.03;13.60;;;;;;;13.63;64.68;98511.59;5018358;28;20196;-50
2022/04/26 10:08:30;;;;;;;17.03;13.00;;;;;;;13.30;64.21;98512.56;5021361;28;20281;-53
2022/04/26 10:10:58;;;;;;;18.83;13.57;;;;;;;13.19;65.14;98523.44;5027762;28;20224;-51
2022/04/26 10:13:39;;;;;;;19.37;14.00;;;;;;;13.21;63.64;98522.28;5033408;28;20203;-51
2022/04/26 10:16:07;;;;;;;18.63;14.27;;;;;;;12.85;64.30;98523.53;5033633;28;20648;-51
2022/04/26 10:18:38;;;;;;;20.83;15.43;;;;;;;12.38;67.33;98519.84;5033020;28;20191;-50
2022/04/26 10:21:07;;;;;;;18.60;14.13;;;;;;;12.62;67.41;98525.25;5033196;28;20264;-51
2022/04/26 10:24:11;;;;;;;16.87;14.33;;;;;;;12.78;66.80;98527.81;5032300;28;20213;-50
2022/04/26 10:26:39;;;;;;;21.73;14.77;;;;;;;12.53;68.68;98529.66;5033313;28;20195;-50
2022/04/26 10:29:15;;;;;;;19.17;15.37;;;;;;;12.57;67.43;98535.41;5032841;28;20617;-51
2022/04/26 10:31:44;;;;;;;18.67;14.00;;;;;;;12.74;67.38;98534.38;5033182;28;20559;-50
2022/04/26 10:34:26;;;;;;;18.53;13.77;;;;;;;13.49;64.35;98542.00;5033100;28;20461;-52
2022/04/26 10:36:54;;;;;;;19.07;14.00;;;;;;;13.65;61.62;98544.56;5033099;28;20196;-50
2022/04/26 10:39:22;;;;;;;20.40;15.53;;;;;;;12.97;64.33;98534.50;5032706;28;20431;-49
2022/04/26 10:41:51;;;;;;;21.10;15.63;;;;;;;13.60;65.15;98543.41;5032851;28;20468;-51
2022/04/26 10:44:32;;;;;;;19.87;15.63;;;;;;;14.02;64.14;98540.34;5032653;28;20296;-51
2022/04/26 10:47:24;;;;;;;18.20;14.23;;;;;;;14.20;60.09;98541.06;5032772;28;20188;-50
2022/04/26 10:49:52;;;;;;;26.13;15.47;;;;;;;14.44;59.30;98548.72;5028729;28;20281;-51
2022/04/26 10:52:47;;;;;;;21.60;15.43;;;;;;;14.71;61.29;98558.88;5032480;28;20213;-53
2022/04/26 10:55:26;;;;;;;21.63;15.43;;;;;;;14.97;58.70;98550.53;5032667;28;20190;-53
2022/04/26 10:57:57;;;;;;;21.47;14.87;;;;;;;15.55;56.50;98559.56;5032919;28;20239;-52
2022/04/26 11:00:33;;;;;;;18.10;13.70;;;;;;;15.37;56.63;98558.13;5032371;28;20653;-50
2022/04/26 11:03:03;;;;;;;18.70;14.93;;;;;;;15.14;57.76;98551.16;5032521;28;20191;-52
2022/04/26 11:05:32;;;;;;;18.50;14.40;;;;;;;14.83;59.51;98552.19;5032519;28;20658;-51
2022/04/26 11:07:59;;;;;;;21.83;15.03;;;;;;;13.93;61.24;98561.59;5032352;28;20736;-52
2022/04/26 11:11:00;;;;;;;19.13;15.03;;;;;;;14.58;58.13;98557.66;5032135;28;20189;-50
2022/04/26 11:13:37;;;;;;;23.27;13.03;;;;;;;15.41;57.38;98562.03;5017250;28;20214;-52
2022/04/26 11:16:09;;;;;;;21.10;14.90;;;;;;;15.36;52.31;98564.41;5023083;28;20239;-50
2022/04/26 11:18:40;;;;;;;18.73;14.23;;;;;;;15.23;54.62;98553.69;5023761;28;20246;-50
2022/04/26 11:21:07;;;;;;;17.73;13.50;;;;;;;15.92;54.49;98566.47;5032206;28;20655;-50
2022/04/26 11:29:24;;;;;;;18.03;14.07;;;;;;;15.43;52.42;98553.94;5031809;28;20220;-50
2022/04/26 11:31:51;;;;;;;18.67;13.40;;;;;;;15.33;52.38;98564.75;5032031;28;20185;-50
2022/04/26 11:34:17;;;;;;;18.03;13.60;;;;;;;16.05;51.24;98576.31;5031810;28;20209;-52
2022/04/26 11:36:44;;;;;;;22.13;14.80;;;;;;;15.96;50.63;98581.91;5032041;28;20193;-53
2022/04/26 11:39:30;;;;;;;17.93;13.07;;;;;;;15.22;52.53;98578.38;5032310;28;20324;-51
2022/04/26 11:41:58;;;;;;;19.53;13.37;;;;;;;15.34;50.37;98571.66;5032124;28;20201;-52
2022/04/26 11:44:27;;;;;;;17.20;13.10;;;;;;;15.37;51.89;98562.59;5031646;28;20279;-52
2022/04/26 11:47:02;;;;;;;18.03;13.77;;;;;;;15.17;52.14;98568.41;5031951;28;20189;-50
2022/04/26 11:49:39;;;;;;;18.20;12.60;;;;;;;15.54;52.77;98578.97;5031588;28;20221;-52
2022/04/26 11:52:06;;;;;;;16.43;13.10;;;;;;;16.14;48.97;98576.19;5031746;28;20679;-52
2022/04/26 11:54:36;;;;;;;17.30;12.63;;;;;;;16.38;49.71;98581.06;5031781;28;20225;-53
2022/04/26 11:57:04;;;;;;;17.47;12.87;;;;;;;16.83;50.32;98586.06;5031853;28;20654;-53
2022/04/26 11:59:35;;;;;;;13.77;11.37;;;;;;;17.36;48.88;98597.16;5014098;28;20622;-51
2022/04/26 12:02:03;;;;;;;14.17;10.87;;;;;;;17.69;43.86;98604.41;5031852;28;20674;-51
2022/04/26 12:04:30;;;;;;;15.00;11.00;;;;;;;17.31;45.92;98600.41;5031752;28;20219;-51
2022/04/26 12:07:00;;;;;;;16.03;11.40;;;;;;;16.62;48.37;98597.50;5031847;28;20194;-50
2022/04/26 12:09:26;;;;;;;8.13;6.20;;;;;;;14.39;49.50;98603.56;5031323;28;20565;-53
2022/04/26 12:12:02;;;;;;;11.23;6.17;;;;;;;13.47;51.20;98610.34;5031677;28;20194;-50
2022/04/26 12:14:29;;;;;;;7.07;5.87;;;;;;;13.23;50.18;98616.47;5031438;28;20214;-50
2022/04/26 12:16:57;;;;;;;10.43;6.20;;;;;;;12.35;53.13;98621.47;5031621;28;20188;-52
2022/04/26 12:19:34;;;;;;;9.40;6.73;;;;;;;11.90;55.48;98610.41;5031348;28;20207;-50
2022/04/26 12:22:02;;;;;;;8.77;6.43;;;;;;;11.49;58.22;98621.53;5031497;28;20530;-49
2022/04/26 12:24:30;;;;;;;11.87;6.50;;;;;;;11.02;59.48;98625.38;5031554;28;20211;-50
2022/04/26 12:27:00;;;;;;;9.23;6.37;;;;;;;11.25;58.98;98638.75;5031654;28;20193;-49
2022/04/26 12:29:28;;;;;;;7.93;5.50;;;;;;;11.02;59.74;98641.88;5031228;28;20545;-50
2022/04/26 12:31:57;;;;;;;7.37;5.57;;;;;;;10.72;60.92;98643.94;5031561;28;20703;-50
2022/04/26 12:34:26;;;;;;;8.07;5.30;;;;;;;10.96;61.02;98663.38;5031290;28;20206;-49
2022/04/26 12:36:57;;;;;;;8.30;6.50;;;;;;;10.90;62.50;98666.59;5031617;28;20241;-52
2022/04/26 12:39:27;;;;;;;8.87;6.07;;;;;;;10.88;61.79;98665.91;5030906;28;20373;-51
2022/04/26 12:41:56;;;;;;;7.80;6.07;;;;;;;10.73;65.28;98669.06;5021250;28;20195;-50
2022/04/26 12:44:24;;;;;;;9.23;6.47;;;;;;;10.49;69.28;98667.06;5021929;28;20218;-52
2022/04/26 12:52:31;;;;;;;9.83;7.10;;;;;;;11.03;70.49;98663.59;5023846;28;20199;-50
2022/04/26 12:54:58;;;;;;;8.47;6.77;;;;;;;11.48;70.18;98654.69;5026030;28;20217;-50
2022/04/26 12:57:25;;;;;;;7.60;6.37;;;;;;;12.00;70.58;98649.53;5020892;28;20623;-50
2022/04/26 12:59:51;;;;;;;8.80;5.90;;;;;;;12.70;66.90;98651.75;5006551;28;20233;-50
2022/04/26 13:02:18;;;;;;;12.47;5.93;;;;;;;13.05;63.88;98653.38;5025321;28;20196;-50
2022/04/26 13:04:46;;;;;;;9.43;6.90;;;;;;;13.33;65.74;98659.03;5023390;28;20212;-50
2022/04/26 13:07:13;;;;;;;7.53;5.83;;;;;;;13.39;63.33;98647.88;5024302;28;20185;-50
2022/04/26 13:09:40;;;;;;;8.47;6.30;;;;;;;13.80;65.14;98657.44;5024989;28;20208;-51
2022/04/26 13:12:07;;;;;;;6.80;5.80;;;;;;;13.77;61.87;98655.16;5020972;28;20199;-51
2022/04/26 13:14:35;;;;;;;8.80;5.43;;;;;;;13.80;62.05;98652.19;5023929;28;20242;-50
2022/04/26 13:17:04;;;;;;;9.27;5.70;;;;;;;13.75;61.91;98653.69;5025255;28;20192;-52
2022/04/26 13:19:31;;;;;;;7.60;5.53;;;;;;;13.75;61.66;98653.69;5014333;28;20645;-53
2022/04/26 13:22:00;;;;;;;8.47;5.77;;;;;;;13.99;63.05;98655.38;5023482;28;20267;-50
2022/04/26 13:24:30;;;;;;;7.33;5.60;;;;;;;13.59;61.89;98655.38;5022818;28;20212;-51
2022/04/26 13:26:56;;;;;;;7.23;5.43;;;;;;;13.86;61.27;98658.53;5023987;28;20187;-50
2022/04/26 13:29:24;;;;;;;5.90;5.20;;;;;;;14.00;61.41;98667.50;5019464;28;20558;-50
2022/04/26 13:31:51;;;;;;;7.70;5.47;;;;;;;14.09;59.64;98666.47;5024467;28;20189;-52
2022/04/26 13:34:18;;;;;;;7.17;4.93;;;;;;;13.84;57.81;98650.03;5024181;28;20303;-51
2022/04/26 13:36:46;;;;;;;8.60;5.43;;;;;;;13.41;60.01;98653.81;5022693;28;20698;-54
2022/04/26 13:39:14;;;;;;;8.27;5.90;;;;;;;13.09;60.36;98650.22;5023871;28;20191;-51
2022/04/26 13:41:41;;;;;;;9.67;4.97;;;;;;;13.19;61.22;98652.69;5024441;28;20616;-50
2022/04/26 13:44:08;;;;;;;9.07;5.90;;;;;;;13.53;62.20;98654.25;5020935;28;20569;-53
2022/04/26 13:46:35;;;;;;;5.90;4.97;;;;;;;13.82;57.49;98650.19;5024959;28;20814;-51
2022/04/26 13:49:03;;;;;;;5.37;4.87;;;;;;;13.78;57.99;98653.34;5010763;28;20227;-51
2022/04/26 13:51:30;;;;;;;7.10;5.30;;;;;;;13.72;56.38;98649.59;5033760;28;20185;-53
2022/04/26 13:53:57;;;;;;;8.70;5.43;;;;;;;13.84;58.19;98644.78;5033490;28;20311;-54
2022/04/26 13:56:26;;;;;;;6.77;5.50;;;;;;;14.26;54.35;98635.69;5033539;28;20722;-53
2022/04/26 13:58:53;;;;;;;7.83;5.83;;;;;;;14.15;52.81;98636.09;5033423;28;20177;-53
2022/04/26 14:01:19;;;;;;;8.07;5.97;;;;;;;13.11;55.19;98626.50;5033781;28;20180;-52
2022/04/26 14:03:46;;;;;;;5.80;4.63;;;;;;;13.73;56.67;98627.63;5033728;28;20211;-53
2022/04/26 14:06:14;;;;;;;8.30;4.83;;;;;;;13.34;54.77;98628.38;5033717;28;20199;-52
2022/04/26 14:08:43;;;;;;;5.33;4.53;;;;;;;13.87;53.52;98636.56;5033156;28;20679;-51
2022/04/26 14:11:10;;;;;;;8.43;5.47;;;;;;;14.17;53.71;98636.72;5033540;28;20267;-50
2022/04/26 14:21:51;;;;;;;6.90;6.20;;;;;;;14.82;53.59;98644.31;5033327;28;20784;-54
2022/04/26 14:24:17;;;;;;;8.63;5.90;;;;;;;14.70;54.33;98647.38;5033140;28;20302;-50
2022/04/26 14:26:44;;;;;;;6.60;5.90;;;;;;;14.77;56.22;98642.25;5033075;28;20184;-50
2022/04/26 14:29:12;;;;;;;7.70;5.83;;;;;;;14.75;54.42;98639.78;5032604;28;20212;-50
2022/04/26 14:31:57;;;;;;;8.40;5.50;;;;;;;14.14;53.79;98637.06;5033512;28;20556;-52
2022/04/26 14:34:24;;;;;;;7.60;5.50;;;;;;;14.05;54.75;98635.47;5020524;28;20725;-51
2022/04/26 14:36:51;;;;;;;7.27;5.73;;;;;;;13.51;54.06;98637.06;5013732;28;20189;-52
2022/04/26 14:39:18;;;;;;;7.50;5.27;;;;;;;13.42;57.01;98637.09;5012829;28;20187;-51
2022/04/26 14:41:45;;;;;;;6.90;5.67;;;;;;;13.29;58.69;98639.38;5013130;28;20239;-51
2022/04/26 14:44:13;;;;;;;6.87;4.83;;;;;;;13.19;58.61;98636.97;5013248;28;20232;-51
2022/04/26 14:46:39;;;;;;;5.43;4.17;;;;;;;13.18;58.50;98635.31;5013155;28;20225;-52
2022/04/26 14:49:07;;;;;;;5.87;5.03;;;;;;;13.26;59.70;98630.03;5018500;28;20208;-51
2022/04/26 14:51:34;;;;;;;6.10;4.97;;;;;;;13.41;58.84;98638.06;5032939;28;20281;-54
2022/04/26 14:54:01;;;;;;;5.43;4.77;;;;;;;13.42;59.60;98639.72;5032434;28;20232;-51
2022/04/26 14:56:28;;;;;;;5.20;4.20;;;;;;;13.26;58.63;98645.75;5032705;28;20653;-51
2022/04/26 14:58:55;;;;;;;5.93;4.80;;;;;;;13.15;59.17;98648.75;5032396;28;20185;-52
2022/04/26 15:01:25;;;;;;;5.83;5.10;;;;;;;12.87;60.52;98646.50;5032729;28;20197;-52
2022/04/26 15:03:51;;;;;;;6.87;5.43;;;;;;;12.61;62.08;98646.69;5032472;28;20784;-51
2022/04/26 15:06:18;;;;;;;6.50;5.20;;;;;;;12.42;64.17;98653.88;5032470;28;20192;-53
2022/04/26 15:11:30;;;;;;;4.67;4.13;;;;;;;11.80;64.86;98675.91;5032388;28;20176;-51
2022/04/26 15:16:46;;;;;;;4.60;4.03;;;;;;;10.79;69.21;98704.22;5032766;28;20190;-50
2022/04/26 15:19:14;;;;;;;8.47;5.10;;;;;;;10.36;72.98;98717.00;5031902;28;20166;-50
2022/04/26 15:21:43;;;;;;;8.50;5.17;;;;;;;10.34;75.50;98731.97;5032282;28;20553;-49
2022/04/26 15:24:10;;;;;;;8.70;5.80;;;;;;;9.95;80.51;98735.63;5023539;28;20299;-50
2022/04/26 15:26:37;;;;;;;10.00;6.87;;;;;;;9.69;83.90;98736.25;5024674;28;20192;-50
2022/04/26 15:29:05;;;;;;;7.70;5.70;;;;;;;9.56;85.58;98736.56;5019573;28;20675;-52
2022/04/26 15:31:32;;;;;;;10.30;5.90;;;;;;;9.49;87.23;98737.28;5018025;28;20626;-50
2022/04/26 15:34:00;;;;;;;9.17;6.50;;;;;;;9.53;88.79;98749.91;5017974;28;20211;-50
2022/04/26 15:36:27;;;;;;;9.13;5.93;;;;;;;9.54;90.23;98742.88;5018113;28;20284;-50
2022/04/26 15:38:56;;;;;;;18.13;9.50;;;;;;;9.58;91.30;98726.00;5020443;28;20654;-50
2022/04/26 15:41:24;;;;;;;13.50;8.30;;;;;;;9.81;92.33;98721.25;5014557;28;20200;-51
2022/04/26 15:43:51;;;;;;;11.07;6.57;;;;;;;9.88;92.27;98714.50;5021297;28;20290;-51
2022/04/26 15:46:18;;;;;;;10.88;7.20;;;;;;;10.17;90.43;98707.47;5016902;28;20450;-50